sensor_id;sensor_type;location;lat;lon;timestamp;P1;durP1;ratioP1;P2;durP2;ratioP2
11328;SDS011;5719;42.714;23.732;2022-12-07T00:00:54;23.70;;;12.07;;
11328;SDS011;5719;42.714;23.732;2022-12-07T00:03:21;23.27;;;11.57;;
11328;SDS011;5719;42.714;23.732;2022-12-07T00:05:48;20.13;;;11.75;;
11328;SDS011;5719;42.714;23.732;2022-12-07T00:08:15;25.63;;;13.20;;
11328;SDS011;5719;42.714;23.732;2022-12-07T00:10:42;25.80;;;13.23;;
11328;SDS011;5719;42.714;23.732;2022-12-07T00:13:09;23.67;;;12.38;;
11328;SDS011;5719;42.714;23.732;2022-12-07T00:15:37;23.00;;;11.60;;
11328;SDS011;5719;42.714;23.732;2022-12-07T00:18:04;21.88;;;11.50;;
11328;SDS011;5719;42.714;23.732;2022-12-07T00:20:31;18.60;;;11.43;;
11328;SDS011;5719;42.714;23.732;2022-12-07T00:22:58;26.42;;;12.07;;
11328;SDS011;5719;42.714;23.732;2022-12-07T00:25:25;23.65;;;11.95;;
11328;SDS011;5719;42.714;23.732;2022-12-07T00:27:52;21.60;;;12.23;;
11328;SDS011;5719;42.714;23.732;2022-12-07T00:30:20;24.90;;;13.43;;
11328;SDS011;5719;42.714;23.732;2022-12-07T00:32:49;25.65;;;12.63;;
11328;SDS011;5719;42.714;23.732;2022-12-07T00:35:16;25.98;;;12.20;;
11328;SDS011;5719;42.714;23.732;2022-12-07T00:37:43;25.73;;;11.75;;
11328;SDS011;5719;42.714;23.732;2022-12-07T00:40:10;24.00;;;12.30;;
11328;SDS011;5719;42.714;23.732;2022-12-07T00:42:37;24.55;;;12.65;;
11328;SDS011;5719;42.714;23.732;2022-12-07T00:45:04;28.42;;;12.60;;
11328;SDS011;5719;42.714;23.732;2022-12-07T00:47:32;23.02;;;12.70;;
11328;SDS011;5719;42.714;23.732;2022-12-07T00:50:01;25.95;;;12.32;;
11328;SDS011;5719;42.714;23.732;2022-12-07T00:52:28;23.20;;;13.10;;
11328;SDS011;5719;42.714;23.732;2022-12-07T00:54:54;25.33;;;12.55;;
11328;SDS011;5719;42.714;23.732;2022-12-07T00:57:21;25.42;;;13.07;;
11328;SDS011;5719;42.714;23.732;2022-12-07T00:59:48;22.35;;;12.73;;
11328;SDS011;5719;42.714;23.732;2022-12-07T01:02:15;19.58;;;12.27;;
11328;SDS011;5719;42.714;23.732;2022-12-07T01:04:42;23.98;;;12.48;;
11328;SDS011;5719;42.714;23.732;2022-12-07T01:07:10;22.75;;;12.65;;
11328;SDS011;5719;42.714;23.732;2022-12-07T01:09:37;28.77;;;13.10;;
11328;SDS011;5719;42.714;23.732;2022-12-07T01:12:04;25.90;;;12.18;;
11328;SDS011;5719;42.714;23.732;2022-12-07T01:14:31;24.33;;;13.02;;
11328;SDS011;5719;42.714;23.732;2022-12-07T01:16:58;32.15;;;12.60;;
11328;SDS011;5719;42.714;23.732;2022-12-07T01:19:25;21.50;;;13.00;;
11328;SDS011;5719;42.714;23.732;2022-12-07T01:21:52;22.35;;;12.85;;
11328;SDS011;5719;42.714;23.732;2022-12-07T01:24:20;22.73;;;12.65;;
11328;SDS011;5719;42.714;23.732;2022-12-07T01:26:48;21.10;;;13.05;;
11328;SDS011;5719;42.714;23.732;2022-12-07T01:29:15;24.00;;;12.00;;
11328;SDS011;5719;42.714;23.732;2022-12-07T01:31:42;26.23;;;13.32;;
11328;SDS011;5719;42.714;23.732;2022-12-07T01:34:09;25.00;;;13.05;;
11328;SDS011;5719;42.714;23.732;2022-12-07T01:36:36;28.30;;;14.07;;
11328;SDS011;5719;42.714;23.732;2022-12-07T01:39:04;28.02;;;14.63;;
11328;SDS011;5719;42.714;23.732;2022-12-07T01:41:34;32.72;;;14.80;;
11328;SDS011;5719;42.714;23.732;2022-12-07T01:44:09;24.65;;;13.98;;
11328;SDS011;5719;42.714;23.732;2022-12-07T01:46:40;29.85;;;13.88;;
11328;SDS011;5719;42.714;23.732;2022-12-07T01:49:09;29.10;;;13.80;;
11328;SDS011;5719;42.714;23.732;2022-12-07T01:51:40;26.42;;;13.38;;
11328;SDS011;5719;42.714;23.732;2022-12-07T01:54:09;28.35;;;13.80;;
11328;SDS011;5719;42.714;23.732;2022-12-07T01:56:40;27.92;;;15.25;;
11328;SDS011;5719;42.714;23.732;2022-12-07T01:59:14;27.13;;;15.30;;
11328;SDS011;5719;42.714;23.732;2022-12-07T02:01:42;34.13;;;15.52;;
11328;SDS011;5719;42.714;23.732;2022-12-07T02:04:10;26.65;;;14.80;;
11328;SDS011;5719;42.714;23.732;2022-12-07T02:06:38;29.45;;;15.23;;
11328;SDS011;5719;42.714;23.732;2022-12-07T02:09:05;31.25;;;15.20;;
11328;SDS011;5719;42.714;23.732;2022-12-07T02:11:32;27.83;;;14.55;;
11328;SDS011;5719;42.714;23.732;2022-12-07T02:14:01;31.85;;;15.90;;
11328;SDS011;5719;42.714;23.732;2022-12-07T02:16:30;29.50;;;14.90;;
11328;SDS011;5719;42.714;23.732;2022-12-07T02:19:09;32.65;;;16.52;;
11328;SDS011;5719;42.714;23.732;2022-12-07T02:21:53;30.02;;;15.25;;
11328;SDS011;5719;42.714;23.732;2022-12-07T02:24:37;28.60;;;15.82;;
11328;SDS011;5719;42.714;23.732;2022-12-07T02:27:23;28.33;;;15.65;;
11328;SDS011;5719;42.714;23.732;2022-12-07T02:30:00;31.42;;;15.18;;
11328;SDS011;5719;42.714;23.732;2022-12-07T02:32:31;25.38;;;14.45;;
11328;SDS011;5719;42.714;23.732;2022-12-07T02:35:09;28.08;;;14.13;;
11328;SDS011;5719;42.714;23.732;2022-12-07T02:37:42;28.42;;;14.75;;
11328;SDS011;5719;42.714;23.732;2022-12-07T02:40:16;29.25;;;14.98;;
11328;SDS011;5719;42.714;23.732;2022-12-07T02:42:49;29.15;;;14.68;;
11328;SDS011;5719;42.714;23.732;2022-12-07T02:45:22;34.35;;;15.52;;
11328;SDS011;5719;42.714;23.732;2022-12-07T02:47:53;27.33;;;14.70;;
11328;SDS011;5719;42.714;23.732;2022-12-07T02:50:23;33.78;;;15.90;;
11328;SDS011;5719;42.714;23.732;2022-12-07T02:52:51;30.05;;;16.52;;
11328;SDS011;5719;42.714;23.732;2022-12-07T02:55:18;28.08;;;14.43;;
11328;SDS011;5719;42.714;23.732;2022-12-07T02:57:53;33.28;;;16.52;;
11328;SDS011;5719;42.714;23.732;2022-12-07T03:00:28;32.63;;;16.08;;
11328;SDS011;5719;42.714;23.732;2022-12-07T03:03:03;28.13;;;15.18;;
11328;SDS011;5719;42.714;23.732;2022-12-07T03:05:40;32.33;;;15.25;;
11328;SDS011;5719;42.714;23.732;2022-12-07T03:08:19;28.98;;;15.25;;
11328;SDS011;5719;42.714;23.732;2022-12-07T03:10:54;31.50;;;15.02;;
11328;SDS011;5719;42.714;23.732;2022-12-07T03:13:25;27.55;;;14.63;;
11328;SDS011;5719;42.714;23.732;2022-12-07T03:16:00;32.15;;;15.65;;
11328;SDS011;5719;42.714;23.732;2022-12-07T03:18:32;32.03;;;15.45;;
11328;SDS011;5719;42.714;23.732;2022-12-07T03:21:04;28.67;;;15.68;;
11328;SDS011;5719;42.714;23.732;2022-12-07T03:23:34;25.85;;;15.07;;
11328;SDS011;5719;42.714;23.732;2022-12-07T03:26:05;29.63;;;14.18;;
11328;SDS011;5719;42.714;23.732;2022-12-07T03:28:38;31.50;;;14.90;;
11328;SDS011;5719;42.714;23.732;2022-12-07T03:31:11;25.30;;;14.13;;
11328;SDS011;5719;42.714;23.732;2022-12-07T03:33:43;24.33;;;13.68;;
11328;SDS011;5719;42.714;23.732;2022-12-07T03:36:16;25.75;;;13.77;;
11328;SDS011;5719;42.714;23.732;2022-12-07T03:38:48;27.38;;;13.45;;
11328;SDS011;5719;42.714;23.732;2022-12-07T03:41:22;22.25;;;12.73;;
11328;SDS011;5719;42.714;23.732;2022-12-07T03:43:52;23.08;;;12.75;;
11328;SDS011;5719;42.714;23.732;2022-12-07T03:46:23;29.48;;;14.38;;
11328;SDS011;5719;42.714;23.732;2022-12-07T03:49:00;27.27;;;13.88;;
11328;SDS011;5719;42.714;23.732;2022-12-07T03:51:37;32.58;;;15.02;;
11328;SDS011;5719;42.714;23.732;2022-12-07T03:54:10;28.67;;;14.65;;
11328;SDS011;5719;42.714;23.732;2022-12-07T03:56:40;26.88;;;13.57;;
11328;SDS011;5719;42.714;23.732;2022-12-07T03:59:09;29.20;;;14.07;;
11328;SDS011;5719;42.714;23.732;2022-12-07T04:01:39;27.00;;;13.75;;
11328;SDS011;5719;42.714;23.732;2022-12-07T04:04:08;25.00;;;13.52;;
11328;SDS011;5719;42.714;23.732;2022-12-07T04:06:35;30.88;;;13.50;;
11328;SDS011;5719;42.714;23.732;2022-12-07T04:09:02;24.73;;;13.35;;
11328;SDS011;5719;42.714;23.732;2022-12-07T04:11:29;31.30;;;14.70;;
11328;SDS011;5719;42.714;23.732;2022-12-07T04:13:55;33.08;;;15.75;;
11328;SDS011;5719;42.714;23.732;2022-12-07T04:16:56;31.48;;;15.18;;
11328;SDS011;5719;42.714;23.732;2022-12-07T04:19:25;32.00;;;15.85;;
11328;SDS011;5719;42.714;23.732;2022-12-07T04:21:54;34.03;;;14.75;;
11328;SDS011;5719;42.714;23.732;2022-12-07T04:24:21;33.58;;;15.05;;
11328;SDS011;5719;42.714;23.732;2022-12-07T04:26:48;32.72;;;14.88;;
11328;SDS011;5719;42.714;23.732;2022-12-07T04:29:15;33.35;;;14.88;;
11328;SDS011;5719;42.714;23.732;2022-12-07T04:31:43;31.58;;;14.30;;
11328;SDS011;5719;42.714;23.732;2022-12-07T04:34:12;27.45;;;14.70;;
11328;SDS011;5719;42.714;23.732;2022-12-07T04:36:42;27.08;;;13.20;;
11328;SDS011;5719;42.714;23.732;2022-12-07T04:39:19;33.65;;;15.15;;
11328;SDS011;5719;42.714;23.732;2022-12-07T04:41:47;34.60;;;15.35;;
11328;SDS011;5719;42.714;23.732;2022-12-07T04:44:14;37.95;;;15.57;;
11328;SDS011;5719;42.714;23.732;2022-12-07T04:46:42;36.53;;;16.48;;
11328;SDS011;5719;42.714;23.732;2022-12-07T04:49:10;36.22;;;16.27;;
11328;SDS011;5719;42.714;23.732;2022-12-07T04:51:39;38.75;;;16.52;;
11328;SDS011;5719;42.714;23.732;2022-12-07T04:54:06;31.35;;;15.40;;
11328;SDS011;5719;42.714;23.732;2022-12-07T04:56:33;34.50;;;15.35;;
11328;SDS011;5719;42.714;23.732;2022-12-07T04:59:00;34.42;;;16.50;;
11328;SDS011;5719;42.714;23.732;2022-12-07T05:01:28;31.60;;;14.95;;
11328;SDS011;5719;42.714;23.732;2022-12-07T05:03:55;32.80;;;15.68;;
11328;SDS011;5719;42.714;23.732;2022-12-07T05:06:24;29.83;;;15.90;;
11328;SDS011;5719;42.714;23.732;2022-12-07T05:08:51;31.60;;;15.10;;
11328;SDS011;5719;42.714;23.732;2022-12-07T05:11:18;37.83;;;16.58;;
11328;SDS011;5719;42.714;23.732;2022-12-07T05:13:59;33.60;;;15.07;;
11328;SDS011;5719;42.714;23.732;2022-12-07T05:16:26;35.08;;;15.00;;
11328;SDS011;5719;42.714;23.732;2022-12-07T05:18:53;32.15;;;14.80;;
11328;SDS011;5719;42.714;23.732;2022-12-07T05:21:20;31.20;;;14.95;;
11328;SDS011;5719;42.714;23.732;2022-12-07T05:23:48;34.05;;;15.02;;
11328;SDS011;5719;42.714;23.732;2022-12-07T05:26:15;40.33;;;15.98;;
11328;SDS011;5719;42.714;23.732;2022-12-07T05:28:42;31.42;;;16.17;;
11328;SDS011;5719;42.714;23.732;2022-12-07T05:31:09;31.08;;;15.65;;
11328;SDS011;5719;42.714;23.732;2022-12-07T05:33:36;29.27;;;16.10;;
11328;SDS011;5719;42.714;23.732;2022-12-07T05:36:03;34.10;;;15.52;;
11328;SDS011;5719;42.714;23.732;2022-12-07T05:38:32;29.45;;;15.30;;
11328;SDS011;5719;42.714;23.732;2022-12-07T05:41:01;30.77;;;15.05;;
11328;SDS011;5719;42.714;23.732;2022-12-07T05:43:29;30.88;;;15.23;;
11328;SDS011;5719;42.714;23.732;2022-12-07T05:45:56;31.75;;;14.77;;
11328;SDS011;5719;42.714;23.732;2022-12-07T05:48:23;31.50;;;14.93;;
11328;SDS011;5719;42.714;23.732;2022-12-07T05:50:51;28.85;;;14.60;;
11328;SDS011;5719;42.714;23.732;2022-12-07T05:53:18;27.98;;;14.77;;
11328;SDS011;5719;42.714;23.732;2022-12-07T05:55:45;28.17;;;12.95;;
11328;SDS011;5719;42.714;23.732;2022-12-07T05:58:13;26.33;;;13.98;;
11328;SDS011;5719;42.714;23.732;2022-12-07T06:00:57;29.52;;;14.02;;
11328;SDS011;5719;42.714;23.732;2022-12-07T06:03:24;28.17;;;14.20;;
11328;SDS011;5719;42.714;23.732;2022-12-07T06:05:51;26.80;;;13.38;;
11328;SDS011;5719;42.714;23.732;2022-12-07T06:08:18;29.15;;;14.15;;
11328;SDS011;5719;42.714;23.732;2022-12-07T06:10:46;30.08;;;14.52;;
11328;SDS011;5719;42.714;23.732;2022-12-07T06:13:36;28.58;;;14.88;;
11328;SDS011;5719;42.714;23.732;2022-12-07T06:16:02;28.73;;;14.68;;
11328;SDS011;5719;42.714;23.732;2022-12-07T06:18:29;28.55;;;13.75;;
11328;SDS011;5719;42.714;23.732;2022-12-07T06:20:56;30.85;;;14.95;;
11328;SDS011;5719;42.714;23.732;2022-12-07T06:23:23;29.52;;;14.60;;
11328;SDS011;5719;42.714;23.732;2022-12-07T06:25:50;25.35;;;13.57;;
11328;SDS011;5719;42.714;23.732;2022-12-07T06:28:17;25.30;;;13.20;;
11328;SDS011;5719;42.714;23.732;2022-12-07T06:30:45;30.83;;;14.32;;
11328;SDS011;5719;42.714;23.732;2022-12-07T06:33:12;27.88;;;15.43;;
11328;SDS011;5719;42.714;23.732;2022-12-07T06:35:39;29.98;;;14.73;;
11328;SDS011;5719;42.714;23.732;2022-12-07T06:38:05;29.13;;;14.63;;
11328;SDS011;5719;42.714;23.732;2022-12-07T06:40:32;32.55;;;14.27;;
11328;SDS011;5719;42.714;23.732;2022-12-07T06:42:59;35.25;;;14.80;;
11328;SDS011;5719;42.714;23.732;2022-12-07T06:45:26;31.25;;;13.88;;
11328;SDS011;5719;42.714;23.732;2022-12-07T06:47:54;30.17;;;15.85;;
11328;SDS011;5719;42.714;23.732;2022-12-07T06:50:21;31.98;;;16.02;;
11328;SDS011;5719;42.714;23.732;2022-12-07T06:52:48;32.10;;;15.38;;
11328;SDS011;5719;42.714;23.732;2022-12-07T06:55:15;40.53;;;16.88;;
11328;SDS011;5719;42.714;23.732;2022-12-07T06:57:42;33.30;;;16.20;;
11328;SDS011;5719;42.714;23.732;2022-12-07T07:00:09;36.78;;;16.42;;
11328;SDS011;5719;42.714;23.732;2022-12-07T07:02:37;36.13;;;16.63;;
11328;SDS011;5719;42.714;23.732;2022-12-07T07:05:05;32.78;;;16.13;;
11328;SDS011;5719;42.714;23.732;2022-12-07T07:07:33;29.85;;;15.20;;
11328;SDS011;5719;42.714;23.732;2022-12-07T07:09:59;34.92;;;16.63;;
11328;SDS011;5719;42.714;23.732;2022-12-07T07:12:26;34.53;;;16.55;;
11328;SDS011;5719;42.714;23.732;2022-12-07T07:14:53;31.90;;;16.25;;
11328;SDS011;5719;42.714;23.732;2022-12-07T07:17:20;32.47;;;16.27;;
11328;SDS011;5719;42.714;23.732;2022-12-07T07:19:47;29.70;;;15.50;;
11328;SDS011;5719;42.714;23.732;2022-12-07T07:22:15;33.63;;;15.30;;
11328;SDS011;5719;42.714;23.732;2022-12-07T07:24:42;30.83;;;14.80;;
11328;SDS011;5719;42.714;23.732;2022-12-07T07:27:09;28.67;;;13.75;;
11328;SDS011;5719;42.714;23.732;2022-12-07T07:29:36;24.27;;;13.00;;
11328;SDS011;5719;42.714;23.732;2022-12-07T07:32:03;27.60;;;13.30;;
11328;SDS011;5719;42.714;23.732;2022-12-07T07:34:30;23.63;;;12.52;;
11328;SDS011;5719;42.714;23.732;2022-12-07T07:36:57;24.02;;;12.70;;
11328;SDS011;5719;42.714;23.732;2022-12-07T07:39:26;23.92;;;13.77;;
11328;SDS011;5719;42.714;23.732;2022-12-07T07:41:53;24.10;;;13.10;;
11328;SDS011;5719;42.714;23.732;2022-12-07T07:44:19;27.85;;;12.80;;
11328;SDS011;5719;42.714;23.732;2022-12-07T07:46:47;32.55;;;13.57;;
11328;SDS011;5719;42.714;23.732;2022-12-07T07:49:14;27.85;;;11.95;;
11328;SDS011;5719;42.714;23.732;2022-12-07T07:51:40;27.15;;;12.88;;
11328;SDS011;5719;42.714;23.732;2022-12-07T07:54:07;20.83;;;11.77;;
11328;SDS011;5719;42.714;23.732;2022-12-07T07:56:35;24.30;;;12.32;;
11328;SDS011;5719;42.714;23.732;2022-12-07T07:59:02;24.98;;;11.90;;
11328;SDS011;5719;42.714;23.732;2022-12-07T08:01:29;23.98;;;10.95;;
11328;SDS011;5719;42.714;23.732;2022-12-07T08:03:56;22.13;;;11.45;;
11328;SDS011;5719;42.714;23.732;2022-12-07T08:06:23;19.25;;;11.50;;
11328;SDS011;5719;42.714;23.732;2022-12-07T08:08:50;24.85;;;11.57;;
11328;SDS011;5719;42.714;23.732;2022-12-07T08:11:17;19.48;;;10.90;;
11328;SDS011;5719;42.714;23.732;2022-12-07T08:13:46;21.70;;;11.13;;
11328;SDS011;5719;42.714;23.732;2022-12-07T08:16:13;19.15;;;10.98;;
11328;SDS011;5719;42.714;23.732;2022-12-07T08:18:40;19.60;;;10.00;;
11328;SDS011;5719;42.714;23.732;2022-12-07T08:21:09;19.45;;;10.02;;
11328;SDS011;5719;42.714;23.732;2022-12-07T08:23:38;15.00;;;8.65;;
11328;SDS011;5719;42.714;23.732;2022-12-07T08:26:06;17.38;;;8.73;;
11328;SDS011;5719;42.714;23.732;2022-12-07T08:28:34;14.15;;;9.00;;
11328;SDS011;5719;42.714;23.732;2022-12-07T08:31:03;13.75;;;7.90;;
11328;SDS011;5719;42.714;23.732;2022-12-07T08:33:32;12.88;;;7.88;;
11328;SDS011;5719;42.714;23.732;2022-12-07T08:36:00;15.13;;;8.02;;
11328;SDS011;5719;42.714;23.732;2022-12-07T08:38:27;19.08;;;9.35;;
11328;SDS011;5719;42.714;23.732;2022-12-07T08:40:54;14.23;;;8.05;;
11328;SDS011;5719;42.714;23.732;2022-12-07T08:43:21;17.63;;;8.35;;
11328;SDS011;5719;42.714;23.732;2022-12-07T08:45:49;16.42;;;9.00;;
11328;SDS011;5719;42.714;23.732;2022-12-07T08:48:25;14.30;;;8.30;;
11328;SDS011;5719;42.714;23.732;2022-12-07T08:50:52;15.90;;;8.85;;
11328;SDS011;5719;42.714;23.732;2022-12-07T08:53:19;17.25;;;9.25;;
11328;SDS011;5719;42.714;23.732;2022-12-07T08:55:47;16.25;;;8.55;;
11328;SDS011;5719;42.714;23.732;2022-12-07T08:58:14;18.70;;;8.85;;
11328;SDS011;5719;42.714;23.732;2022-12-07T09:00:42;16.88;;;8.60;;
11328;SDS011;5719;42.714;23.732;2022-12-07T09:03:08;17.23;;;8.43;;
11328;SDS011;5719;42.714;23.732;2022-12-07T09:05:37;14.43;;;8.90;;
11328;SDS011;5719;42.714;23.732;2022-12-07T09:08:04;13.45;;;9.18;;
11328;SDS011;5719;42.714;23.732;2022-12-07T09:10:32;21.02;;;8.60;;
11328;SDS011;5719;42.714;23.732;2022-12-07T09:12:59;13.70;;;8.48;;
11328;SDS011;5719;42.714;23.732;2022-12-07T09:15:26;14.50;;;8.55;;
11328;SDS011;5719;42.714;23.732;2022-12-07T09:17:53;15.18;;;8.48;;
11328;SDS011;5719;42.714;23.732;2022-12-07T09:20:20;15.98;;;8.45;;
11328;SDS011;5719;42.714;23.732;2022-12-07T09:22:48;13.20;;;7.90;;
11328;SDS011;5719;42.714;23.732;2022-12-07T09:25:15;11.90;;;7.75;;
11328;SDS011;5719;42.714;23.732;2022-12-07T09:27:42;13.65;;;8.02;;
11328;SDS011;5719;42.714;23.732;2022-12-07T09:30:10;14.18;;;7.78;;
11328;SDS011;5719;42.714;23.732;2022-12-07T09:32:37;11.52;;;7.72;;
11328;SDS011;5719;42.714;23.732;2022-12-07T09:35:04;15.45;;;7.30;;
11328;SDS011;5719;42.714;23.732;2022-12-07T09:37:31;11.15;;;7.53;;
11328;SDS011;5719;42.714;23.732;2022-12-07T09:40:03;13.68;;;7.40;;
11328;SDS011;5719;42.714;23.732;2022-12-07T09:42:33;13.57;;;7.63;;
11328;SDS011;5719;42.714;23.732;2022-12-07T09:47:33;12.93;;;8.48;;
11328;SDS011;5719;42.714;23.732;2022-12-07T09:50:03;14.82;;;7.93;;
11328;SDS011;5719;42.714;23.732;2022-12-07T09:52:34;14.70;;;8.43;;
11328;SDS011;5719;42.714;23.732;2022-12-07T09:55:03;16.40;;;7.90;;
11328;SDS011;5719;42.714;23.732;2022-12-07T09:57:31;11.50;;;7.53;;
11328;SDS011;5719;42.714;23.732;2022-12-07T10:00:00;13.50;;;7.88;;
11328;SDS011;5719;42.714;23.732;2022-12-07T10:02:33;18.10;;;8.75;;
11328;SDS011;5719;42.714;23.732;2022-12-07T10:05:03;17.50;;;8.40;;
11328;SDS011;5719;42.714;23.732;2022-12-07T10:07:31;14.25;;;7.88;;
11328;SDS011;5719;42.714;23.732;2022-12-07T10:09:58;13.98;;;7.03;;
11328;SDS011;5719;42.714;23.732;2022-12-07T10:12:27;11.38;;;7.60;;
11328;SDS011;5719;42.714;23.732;2022-12-07T10:14:54;9.98;;;6.88;;
11328;SDS011;5719;42.714;23.732;2022-12-07T10:17:35;10.93;;;7.55;;
11328;SDS011;5719;42.714;23.732;2022-12-07T10:20:14;16.30;;;8.10;;
11328;SDS011;5719;42.714;23.732;2022-12-07T10:22:55;11.48;;;7.72;;
11328;SDS011;5719;42.714;23.732;2022-12-07T10:25:25;13.57;;;7.38;;
11328;SDS011;5719;42.714;23.732;2022-12-07T10:27:59;14.02;;;7.78;;
11328;SDS011;5719;42.714;23.732;2022-12-07T10:32:56;18.55;;;7.25;;
11328;SDS011;5719;42.714;23.732;2022-12-07T10:35:24;16.02;;;6.65;;
11328;SDS011;5719;42.714;23.732;2022-12-07T10:37:53;12.05;;;7.40;;
11328;SDS011;5719;42.714;23.732;2022-12-07T10:40:26;12.48;;;6.57;;
11328;SDS011;5719;42.714;23.732;2022-12-07T10:43:04;12.73;;;7.20;;
11328;SDS011;5719;42.714;23.732;2022-12-07T10:45:42;10.60;;;7.32;;
11328;SDS011;5719;42.714;23.732;2022-12-07T10:48:32;9.63;;;6.82;;
11328;SDS011;5719;42.714;23.732;2022-12-07T10:51:07;16.42;;;6.82;;
11328;SDS011;5719;42.714;23.732;2022-12-07T10:53:48;11.90;;;6.70;;
11328;SDS011;5719;42.714;23.732;2022-12-07T10:56:28;11.73;;;6.93;;
11328;SDS011;5719;42.714;23.732;2022-12-07T10:59:21;10.98;;;6.57;;
11328;SDS011;5719;42.714;23.732;2022-12-07T11:02:09;11.60;;;6.30;;
11328;SDS011;5719;42.714;23.732;2022-12-07T11:04:53;14.82;;;6.68;;
11328;SDS011;5719;42.714;23.732;2022-12-07T11:07:33;10.27;;;5.72;;
11328;SDS011;5719;42.714;23.732;2022-12-07T11:10:09;11.55;;;7.43;;
11328;SDS011;5719;42.714;23.732;2022-12-07T11:12:52;10.68;;;6.38;;
11328;SDS011;5719;42.714;23.732;2022-12-07T11:15:33;10.43;;;6.10;;
11328;SDS011;5719;42.714;23.732;2022-12-07T11:18:11;13.55;;;6.47;;
11328;SDS011;5719;42.714;23.732;2022-12-07T11:20:48;13.27;;;5.63;;
11328;SDS011;5719;42.714;23.732;2022-12-07T11:23:21;11.65;;;5.80;;
11328;SDS011;5719;42.714;23.732;2022-12-07T11:26:01;11.00;;;5.88;;
11328;SDS011;5719;42.714;23.732;2022-12-07T11:28:41;9.73;;;5.75;;
11328;SDS011;5719;42.714;23.732;2022-12-07T11:31:28;11.52;;;6.57;;
11328;SDS011;5719;42.714;23.732;2022-12-07T11:34:03;9.93;;;6.50;;
11328;SDS011;5719;42.714;23.732;2022-12-07T11:36:39;13.20;;;7.05;;
11328;SDS011;5719;42.714;23.732;2022-12-07T11:39:10;8.77;;;6.32;;
11328;SDS011;5719;42.714;23.732;2022-12-07T11:41:47;15.27;;;5.82;;
11328;SDS011;5719;42.714;23.732;2022-12-07T11:44:19;10.05;;;5.15;;
11328;SDS011;5719;42.714;23.732;2022-12-07T11:46:56;8.52;;;5.40;;
11328;SDS011;5719;42.714;23.732;2022-12-07T11:49:33;10.13;;;5.57;;
11328;SDS011;5719;42.714;23.732;2022-12-07T11:52:09;8.75;;;5.15;;
11328;SDS011;5719;42.714;23.732;2022-12-07T11:54:46;13.05;;;5.72;;
11328;SDS011;5719;42.714;23.732;2022-12-07T11:57:18;10.65;;;4.70;;
11328;SDS011;5719;42.714;23.732;2022-12-07T11:59:52;10.30;;;5.07;;
11328;SDS011;5719;42.714;23.732;2022-12-07T12:02:28;10.55;;;4.88;;
11328;SDS011;5719;42.714;23.732;2022-12-07T12:05:05;8.88;;;5.00;;
11328;SDS011;5719;42.714;23.732;2022-12-07T12:07:40;10.18;;;4.97;;
11328;SDS011;5719;42.714;23.732;2022-12-07T12:10:14;8.95;;;5.05;;
11328;SDS011;5719;42.714;23.732;2022-12-07T12:13:01;8.40;;;5.30;;
11328;SDS011;5719;42.714;23.732;2022-12-07T12:15:57;12.45;;;5.05;;
11328;SDS011;5719;42.714;23.732;2022-12-07T12:18:40;10.57;;;5.90;;
11328;SDS011;5719;42.714;23.732;2022-12-07T12:21:19;11.67;;;5.53;;
11328;SDS011;5719;42.714;23.732;2022-12-07T12:23:55;7.07;;;4.82;;
11328;SDS011;5719;42.714;23.732;2022-12-07T12:26:25;8.32;;;4.90;;
11328;SDS011;5719;42.714;23.732;2022-12-07T12:28:55;8.43;;;5.20;;
11328;SDS011;5719;42.714;23.732;2022-12-07T12:31:35;11.38;;;4.93;;
11328;SDS011;5719;42.714;23.732;2022-12-07T12:36:59;8.13;;;5.15;;
11328;SDS011;5719;42.714;23.732;2022-12-07T12:39:26;9.13;;;5.10;;
11328;SDS011;5719;42.714;23.732;2022-12-07T12:41:57;10.32;;;4.70;;
11328;SDS011;5719;42.714;23.732;2022-12-07T12:50:31;8.48;;;5.30;;
11328;SDS011;5719;42.714;23.732;2022-12-07T12:53:03;12.48;;;5.22;;
11328;SDS011;5719;42.714;23.732;2022-12-07T12:56:03;8.07;;;5.57;;
11328;SDS011;5719;42.714;23.732;2022-12-07T12:58:49;10.57;;;5.50;;
11328;SDS011;5719;42.714;23.732;2022-12-07T13:01:38;9.77;;;5.35;;
11328;SDS011;5719;42.714;23.732;2022-12-07T13:04:27;8.50;;;4.68;;
11328;SDS011;5719;42.714;23.732;2022-12-07T13:07:03;9.10;;;5.40;;
11328;SDS011;5719;42.714;23.732;2022-12-07T13:09:31;8.35;;;5.20;;
11328;SDS011;5719;42.714;23.732;2022-12-07T13:12:02;10.75;;;5.05;;
11328;SDS011;5719;42.714;23.732;2022-12-07T13:14:54;8.18;;;5.03;;
11328;SDS011;5719;42.714;23.732;2022-12-07T13:28:49;12.23;;;5.90;;
11328;SDS011;5719;42.714;23.732;2022-12-07T13:31:31;10.45;;;5.68;;
11328;SDS011;5719;42.714;23.732;2022-12-07T13:34:00;12.13;;;6.00;;
11328;SDS011;5719;42.714;23.732;2022-12-07T13:36:29;10.27;;;6.40;;
11328;SDS011;5719;42.714;23.732;2022-12-07T13:39:15;11.50;;;6.13;;
11328;SDS011;5719;42.714;23.732;2022-12-07T13:41:45;8.43;;;5.78;;
11328;SDS011;5719;42.714;23.732;2022-12-07T13:44:17;11.25;;;5.90;;
11328;SDS011;5719;42.714;23.732;2022-12-07T13:46:47;10.48;;;5.90;;
11328;SDS011;5719;42.714;23.732;2022-12-07T13:49:20;10.57;;;5.63;;
11328;SDS011;5719;42.714;23.732;2022-12-07T13:51:48;15.90;;;6.25;;
11328;SDS011;5719;42.714;23.732;2022-12-07T13:54:17;16.55;;;6.50;;
11328;SDS011;5719;42.714;23.732;2022-12-07T13:56:47;11.07;;;5.90;;
11328;SDS011;5719;42.714;23.732;2022-12-07T13:59:17;11.05;;;6.03;;
11328;SDS011;5719;42.714;23.732;2022-12-07T14:01:46;13.88;;;6.18;;
11328;SDS011;5719;42.714;23.732;2022-12-07T14:07:01;12.15;;;6.30;;
11328;SDS011;5719;42.714;23.732;2022-12-07T14:09:54;11.27;;;6.05;;
11328;SDS011;5719;42.714;23.732;2022-12-07T14:12:22;10.30;;;6.35;;
11328;SDS011;5719;42.714;23.732;2022-12-07T14:14:49;14.32;;;7.47;;
11328;SDS011;5719;42.714;23.732;2022-12-07T14:17:18;13.63;;;6.55;;
11328;SDS011;5719;42.714;23.732;2022-12-07T14:19:49;13.05;;;7.20;;
11328;SDS011;5719;42.714;23.732;2022-12-07T14:22:19;11.93;;;6.90;;
11328;SDS011;5719;42.714;23.732;2022-12-07T14:25:09;10.48;;;7.00;;
11328;SDS011;5719;42.714;23.732;2022-12-07T14:27:47;16.92;;;7.75;;
11328;SDS011;5719;42.714;23.732;2022-12-07T14:30:21;12.52;;;7.05;;
11328;SDS011;5719;42.714;23.732;2022-12-07T14:32:50;13.40;;;7.65;;
11328;SDS011;5719;42.714;23.732;2022-12-07T14:35:19;17.73;;;7.15;;
11328;SDS011;5719;42.714;23.732;2022-12-07T14:37:47;14.40;;;6.95;;
11328;SDS011;5719;42.714;23.732;2022-12-07T14:40:17;13.57;;;7.07;;
11328;SDS011;5719;42.714;23.732;2022-12-07T14:42:46;15.20;;;7.72;;
11328;SDS011;5719;42.714;23.732;2022-12-07T14:45:17;13.82;;;7.72;;
11328;SDS011;5719;42.714;23.732;2022-12-07T14:47:45;12.23;;;6.30;;
11328;SDS011;5719;42.714;23.732;2022-12-07T14:50:13;15.63;;;7.22;;
11328;SDS011;5719;42.714;23.732;2022-12-07T14:52:41;10.18;;;6.22;;
11328;SDS011;5719;42.714;23.732;2022-12-07T14:55:12;11.55;;;6.65;;
11328;SDS011;5719;42.714;23.732;2022-12-07T14:57:44;10.65;;;6.00;;
11328;SDS011;5719;42.714;23.732;2022-12-07T15:00:13;13.07;;;6.53;;
11328;SDS011;5719;42.714;23.732;2022-12-07T15:02:42;9.98;;;6.20;;
11328;SDS011;5719;42.714;23.732;2022-12-07T15:05:09;10.68;;;6.50;;
11328;SDS011;5719;42.714;23.732;2022-12-07T15:07:36;10.02;;;6.88;;
11328;SDS011;5719;42.714;23.732;2022-12-07T15:10:03;12.73;;;6.78;;
11328;SDS011;5719;42.714;23.732;2022-12-07T15:12:31;13.98;;;7.68;;
11328;SDS011;5719;42.714;23.732;2022-12-07T15:15:00;15.57;;;8.77;;
11328;SDS011;5719;42.714;23.732;2022-12-07T15:17:27;13.90;;;7.20;;